Time;durP1;ratioP1;P1;durP2;ratioP2;P2;SDS_P1;SDS_P2;PMS_P1;PMS_P2;Temp;Humidity;BMP_temperature;BMP_pressure;BME280_temperature;BME280_humidity;BME280_pressure;Samples;Min_cycle;Max_cycle;Signal;HPM_P1;HPM_P2
2024/02/09 00:02:18;;;;;;;;;;;;;;;18.64;62.66;100109.28;7394455;19;1492;-72
2024/02/09 00:04:46;;;;;;;;;;;;;;;18.62;62.82;100103.22;7397442;19;1921;-72
2024/02/09 00:07:15;;;;;;;;;;;;;;;18.64;62.91;100121.78;7395301;19;1783;-72
2024/02/09 00:09:43;;;;;;;;;;;;;;;18.68;62.65;100133.91;7397136;19;1484;-72
2024/02/09 00:12:12;;;;;;;;;;;;;;;18.64;62.94;100119.97;7395388;19;1387;-72
2024/02/09 00:14:44;;;;;;;;;;;;;;;18.61;62.82;100124.78;7393100;19;1634;-72
2024/02/09 00:17:12;;;;;;;;;;;;;;;18.65;62.91;100126.19;7395259;19;1841;-72
2024/02/09 00:19:43;;;;;;;;;;;;;;;18.67;62.63;100124.19;7394033;19;1584;-72
2024/02/09 00:22:12;;;;;;;;;;;;;;;18.59;62.74;100116.06;7397646;19;1477;-72
2024/02/09 00:24:42;;;;;;;;;;;;;;;18.60;62.74;100125.75;7396590;19;1392;-72
2024/02/09 00:27:11;;;;;;;;;;;;;;;18.63;62.89;100129.00;7396600;19;1495;-73
2024/02/09 00:29:39;;;;;;;;;;;;;;;18.62;62.84;100131.81;7396175;19;1393;-73
2024/02/09 00:32:08;;;;;;;;;;;;;;;18.62;62.87;100129.13;7395433;19;982;-82
2024/02/09 00:34:39;;;;;;;;;;;;;;;18.51;63.03;100122.16;7393740;19;1742;-82
2024/02/09 00:37:11;;;;;;;;;;;;;;;18.55;63.06;100125.38;7399707;19;1853;-72
2024/02/09 00:39:42;;;;;;;;;;;;;;;18.52;63.17;100121.16;7395861;19;1950;-73
2024/02/09 00:42:12;;;;;;;;;;;;;;;18.38;63.48;100125.19;7398069;19;1575;-82
2024/02/09 00:44:43;;;;;;;;;;;;;;;18.36;63.36;100112.91;7400196;19;1430;-73
2024/02/09 00:47:11;;;;;;;;;;;;;;;18.35;63.68;100124.63;7398161;19;1560;-81
2024/02/09 00:49:41;;;;;;;;;;;;;;;18.43;63.38;100122.06;7400511;19;1480;-82
2024/02/09 00:52:14;;;;;;;;;;;;;;;18.47;63.12;100118.09;7399297;19;1606;-81
2024/02/09 00:54:43;;;;;;;;;;;;;;;18.49;63.15;100106.22;7398014;19;1517;-82
2024/02/09 00:57:11;;;;;;;;;;;;;;;18.51;63.03;100100.72;7398359;19;1849;-72
2024/02/09 00:59:42;;;;;;;;;;;;;;;18.50;63.06;100123.13;7393823;19;1500;-72
2024/02/09 01:02:11;;;;;;;;;;;;;;;18.46;63.25;100111.03;7393904;19;1434;-73
2024/02/09 01:04:42;;;;;;;;;;;;;;;18.48;63.28;100112.59;7396057;19;1522;-73
2024/02/09 01:07:13;;;;;;;;;;;;;;;18.51;62.92;100114.13;7395852;19;1055;-72
2024/02/09 01:09:39;;;;;;;;;;;;;;;18.53;63.10;100111.31;7397041;19;1182;-72
2024/02/09 02:45:58;;;;;;;;;;;;;;;18.02;64.23;100068.81;7405527;19;1534;-82
2024/02/09 03:04:39;;;;;;;;;;;;;;;18.21;63.65;100091.97;7405512;19;1732;-82
2024/02/09 03:07:10;;;;;;;;;;;;;;;18.27;63.49;100086.03;7402058;19;979;-84
2024/02/09 03:09:38;;;;;;;;;;;;;;;18.21;63.73;100097.34;7405713;19;1619;-82
2024/02/09 03:12:07;;;;;;;;;;;;;;;18.17;63.75;100085.25;7404408;19;1389;-82
2024/02/09 03:14:39;;;;;;;;;;;;;;;18.13;63.98;100102.59;7404346;19;1536;-82
2024/02/09 03:17:09;;;;;;;;;;;;;;;18.18;63.77;100102.97;7403449;19;1849;-83
2024/02/09 03:19:38;;;;;;;;;;;;;;;18.20;63.78;100114.38;7404511;19;1530;-82
2024/02/09 03:22:06;;;;;;;;;;;;;;;18.15;63.84;100097.94;7404648;19;1226;-83
2024/02/09 03:24:39;;;;;;;;;;;;;;;17.98;64.15;100104.03;7403764;19;1547;-82
2024/02/09 03:27:08;;;;;;;;;;;;;;;18.01;64.24;100117.97;7404155;19;1546;-82
2024/02/09 03:29:39;;;;;;;;;;;;;;;17.96;64.26;100119.38;7402975;19;1487;-82
2024/02/09 03:32:09;;;;;;;;;;;;;;;18.00;64.20;100131.47;7403927;19;1617;-81
2024/02/09 03:34:37;;;;;;;;;;;;;;;18.01;64.26;100142.03;7401316;19;1844;-82
2024/02/09 03:37:06;;;;;;;;;;;;;;;17.98;64.29;100128.09;7392670;19;1849;-82
2024/02/09 03:39:38;;;;;;;;;;;;;;;18.01;64.10;100134.00;7401837;19;1403;-70
2024/02/09 03:42:06;;;;;;;;;;;;;;;18.14;64.14;100120.31;7401011;19;1504;-79
2024/02/09 03:44:35;;;;;;;;;;;;;;;18.07;64.05;100129.94;7403126;19;1757;-70
2024/02/09 03:47:06;;;;;;;;;;;;;;;18.14;63.80;100116.78;7397421;19;1401;-70
2024/02/09 03:49:34;;;;;;;;;;;;;;;18.19;63.72;100139.47;7398378;19;1323;-70
2024/02/09 03:52:05;;;;;;;;;;;;;;;18.15;63.64;100122.00;7396847;19;1603;-70
2024/02/09 03:54:34;;;;;;;;;;;;;;;18.11;63.52;100104.56;7398863;19;1579;-70
2024/02/09 03:57:03;;;;;;;;;;;;;;;18.08;63.71;100118.22;7394123;19;1839;-70
2024/02/09 03:59:32;;;;;;;;;;;;;;;18.08;63.72;100118.22;7397740;19;1554;-70
2024/02/09 04:02:04;;;;;;;;;;;;;;;17.95;64.12;100107.00;7398176;19;1433;-70
2024/02/09 04:04:35;;;;;;;;;;;;;;;17.85;64.55;100123.06;7397876;19;1436;-70
2024/02/09 04:07:05;;;;;;;;;;;;;;;18.32;63.90;100122.22;7398644;19;1331;-70
2024/02/09 04:09:34;;;;;;;;;;;;;;;18.67;63.17;100111.63;7396263;19;1927;-70
2024/02/09 04:12:02;;;;;;;;;;;;;;;18.68;62.75;100123.19;7396723;19;1494;-70
2024/02/09 04:14:31;;;;;;;;;;;;;;;18.83;62.67;100115.53;7396265;19;1555;-70
2024/02/09 04:17:00;;;;;;;;;;;;;;;18.91;62.45;100118.31;7396355;19;1851;-71
2024/02/09 04:19:29;;;;;;;;;;;;;;;18.95;62.48;100108.97;7398309;19;1742;-80
2024/02/09 04:22:00;;;;;;;;;;;;;;;18.94;62.39;100109.09;7402121;19;1579;-80
2024/02/09 04:24:29;;;;;;;;;;;;;;;18.93;62.40;100105.59;7402212;19;1568;-80
2024/02/09 04:26:58;;;;;;;;;;;;;;;18.93;62.29;100094.88;7398833;19;1504;-81
2024/02/09 04:29:26;;;;;;;;;;;;;;;18.91;62.37;100118.31;7399721;19;1563;-70
2024/02/09 04:31:55;;;;;;;;;;;;;;;18.89;62.61;100128.31;7400012;19;1575;-80
2024/02/09 04:34:24;;;;;;;;;;;;;;;18.88;62.40;100106.06;7398357;19;1564;-80
2024/02/09 04:36:55;;;;;;;;;;;;;;;18.90;62.44;100119.31;7390534;19;1848;-80
2024/02/09 04:39:26;;;;;;;;;;;;;;;18.93;62.36;100123.50;7398404;19;1512;-80
2024/02/09 04:41:54;;;;;;;;;;;;;;;18.98;62.26;100132.78;7399906;19;1500;-79
2024/02/09 04:44:23;;;;;;;;;;;;;;;18.98;62.26;100111.34;7400386;19;1412;-80
2024/02/09 04:46:51;;;;;;;;;;;;;;;18.98;62.13;100115.84;7398723;19;996;-79
2024/02/09 04:49:20;;;;;;;;;;;;;;;19.06;62.09;100118.66;7399702;19;1497;-80
2024/02/09 04:51:49;;;;;;;;;;;;;;;19.08;62.23;100128.22;7396147;19;1530;-80
2024/02/09 04:54:17;;;;;;;;;;;;;;;19.08;62.08;100128.22;7399217;19;1597;-80
2024/02/09 04:56:49;;;;;;;;;;;;;;;19.16;61.89;100134.63;7399865;19;1867;-80
2024/02/09 04:59:17;;;;;;;;;;;;;;;19.11;61.94;100126.22;7398608;19;1516;-70
2024/02/09 05:01:46;;;;;;;;;;;;;;;19.13;62.00;100129.59;7395609;19;1511;-70
2024/02/09 05:04:15;;;;;;;;;;;;;;;19.17;61.93;100131.81;7397628;19;1508;-70
2024/02/09 05:06:44;;;;;;;;;;;;;;;19.14;61.92;100129.44;7398542;19;1346;-71
2024/02/09 05:09:12;;;;;;;;;;;;;;;19.17;61.95;100128.28;7395374;19;1921;-70
2024/02/09 05:11:41;;;;;;;;;;;;;;;19.17;61.95;100139.84;7394234;19;1936;-70
2024/02/09 05:14:15;;;;;;;;;;;;;;;19.24;61.87;100132.06;7395502;19;1740;-70
2024/02/09 05:16:43;;;;;;;;;;;;;;;19.21;61.95;100132.34;7395206;19;1856;-73
2024/02/09 05:19:12;;;;;;;;;;;;;;;19.18;61.84;100128.13;7397724;19;1576;-73
2024/02/09 05:21:41;;;;;;;;;;;;;;;19.11;61.84;100121.69;7399160;19;1706;-72
2024/02/09 05:24:10;;;;;;;;;;;;;;;19.14;61.86;100141.97;7402053;19;1342;-73
2024/02/09 05:26:38;;;;;;;;;;;;;;;19.20;61.24;100131.50;7403140;19;1525;-72
2024/02/09 05:29:07;;;;;;;;;;;;;;;19.32;60.71;100145.53;7401653;19;1589;-72
2024/02/09 05:31:41;;;;;;;;;;;;;;;19.26;61.14;100141.63;7401731;19;1504;-72
2024/02/09 05:34:10;;;;;;;;;;;;;;;19.27;61.32;100155.84;7403177;19;1639;-71
2024/02/09 05:36:38;;;;;;;;;;;;;;;19.27;61.43;100153.19;7396573;19;1823;-72
2024/02/09 05:39:09;;;;;;;;;;;;;;;19.30;61.60;100152.03;7404122;19;1331;-73
2024/02/09 05:41:37;;;;;;;;;;;;;;;19.37;61.66;100162.00;7403532;19;1436;-75
2024/02/09 05:44:06;;;;;;;;;;;;;;;19.37;60.99;100166.50;7403510;19;1231;-74
2024/02/09 05:46:35;;;;;;;;;;;;;;;19.35;60.84;100158.63;7402140;19;1397;-74
2024/02/09 05:49:07;;;;;;;;;;;;;;;19.44;60.49;100167.59;7403031;19;1109;-74
2024/02/09 05:51:35;;;;;;;;;;;;;;;19.41;60.73;100171.41;7397073;19;1566;-83
2024/02/09 05:54:05;;;;;;;;;;;;;;;19.44;60.50;100176.47;7405523;19;1296;-75
2024/02/09 05:56:35;;;;;;;;;;;;;;;19.41;60.32;100171.41;7401607;19;1864;-74
2024/02/09 05:59:06;;;;;;;;;;;;;;;19.55;59.99;100161.16;7402000;19;1305;-74
2024/02/09 06:01:35;;;;;;;;;;;;;;;19.53;59.84;100181.91;7403364;19;1078;-75
2024/02/09 06:04:06;;;;;;;;;;;;;;;19.59;59.80;100190.19;7401058;19;1493;-82
2024/02/09 06:06:35;;;;;;;;;;;;;;;19.65;59.46;100189.56;7405447;19;1319;-83
2024/02/09 06:09:05;;;;;;;;;;;;;;;19.69;59.35;100179.38;7402491;19;1801;-83
2024/02/09 06:11:33;;;;;;;;;;;;;;;19.67;59.32;100179.53;7405202;19;1530;-83
2024/02/09 06:14:02;;;;;;;;;;;;;;;19.67;59.04;100176.00;7403967;19;1824;-83
2024/02/09 06:16:31;;;;;;;;;;;;;;;19.68;58.17;100166.97;7406637;19;1424;-83
2024/02/09 06:19:00;;;;;;;;;;;;;;;19.81;57.82;100180.84;7402389;19;1855;-83
2024/02/09 06:21:31;;;;;;;;;;;;;;;19.93;56.89;100184.13;7402420;19;1069;-74
2024/02/09 06:24:00;;;;;;;;;;;;;;;20.08;56.71;100173.69;7404216;19;1462;-82
2024/02/09 06:26:28;;;;;;;;;;;;;;;19.81;57.35;100183.53;7404540;19;1445;-83
2024/02/09 06:28:56;;;;;;;;;;;;;;;19.54;58.07;100184.44;7399058;19;1469;-83
2024/02/09 06:31:26;;;;;;;;;;;;;;;19.30;59.04;100157.38;7396693;19;1527;-84
2024/02/09 06:33:59;;;;;;;;;;;;;;;19.20;61.86;100165.50;7406059;19;1513;-83
2024/02/09 06:36:31;;;;;;;;;;;;;;;19.08;61.91;100171.09;7394827;19;1625;-82
2024/02/09 06:39:00;;;;;;;;;;;;;;;19.00;60.95;100173.69;7401181;19;1849;-82
2024/02/09 06:41:29;;;;;;;;;;;;;;;18.83;60.66;100161.06;7404085;19;1508;-82
2024/02/09 06:43:59;;;;;;;;;;;;;;;19.32;60.03;100176.84;7404861;19;1369;-82
2024/02/09 06:46:27;;;;;;;;;;;;;;;19.54;60.03;100180.94;7404636;19;1828;-84
2024/02/09 06:48:57;;;;;;;;;;;;;;;19.71;60.27;100173.88;7405697;19;931;-83
2024/02/09 06:51:28;;;;;;;;;;;;;;;19.42;61.88;100178.47;7403627;19;1737;-83
2024/02/09 06:53:59;;;;;;;;;;;;;;;19.30;62.30;100173.47;7403003;19;1449;-83
2024/02/09 06:56:30;;;;;;;;;;;;;;;19.12;63.24;100182.34;7404663;19;1580;-82
2024/02/09 06:59:00;;;;;;;;;;;;;;;18.94;63.64;100195.72;7401565;19;1843;-83
2024/02/09 07:01:31;;;;;;;;;;;;;;;18.89;64.06;100181.91;7403485;19;1804;-84
2024/02/09 07:03:59;;;;;;;;;;;;;;;18.91;64.70;100177.25;7403355;19;1876;-83
2024/02/09 07:06:28;;;;;;;;;;;;;;;19.22;63.88;100175.09;7401729;19;1257;-83
2024/02/09 07:08:59;;;;;;;;;;;;;;;19.51;63.57;100171.34;7402912;19;1811;-83
2024/02/09 07:11:28;;;;;;;;;;;;;;;19.75;63.17;100170.75;7402448;19;1481;-73
2024/02/09 07:13:57;;;;;;;;;;;;;;;19.98;62.74;100181.00;7398806;19;1525;-74
2024/02/09 07:16:25;;;;;;;;;;;;;;;19.96;62.68;100181.16;7397572;19;1504;-74
2024/02/09 07:18:55;;;;;;;;;;;;;;;20.06;62.66;100173.84;7388916;19;1873;-74
2024/02/09 07:21:23;;;;;;;;;;;;;;;20.04;62.76;100177.69;7395395;19;1324;-74
2024/02/09 07:23:52;;;;;;;;;;;;;;;20.04;62.85;100194.63;7395787;19;1737;-74
2024/02/09 07:26:26;;;;;;;;;;;;;;;20.09;62.80;100183.41;7397436;19;1033;-75
2024/02/09 07:28:56;;;;;;;;;;;;;;;20.14;63.08;100196.38;7399589;19;1735;-74
2024/02/09 07:31:25;;;;;;;;;;;;;;;20.13;62.99;100181.25;7401248;19;1629;-74
2024/02/09 07:33:55;;;;;;;;;;;;;;;19.92;61.39;100184.31;7401103;19;1355;-74
2024/02/09 07:36:27;;;;;;;;;;;;;;;19.80;59.56;100189.91;7392514;19;1330;-74
2024/02/09 07:38:56;;;;;;;;;;;;;;;19.82;59.49;100190.59;7398426;19;1853;-74
2024/02/09 07:41:27;;;;;;;;;;;;;;;19.89;59.27;100192.66;7396358;19;1504;-74
2024/02/09 07:43:56;;;;;;;;;;;;;;;19.95;59.10;100197.41;7398137;19;1469;-73
2024/02/09 07:46:27;;;;;;;;;;;;;;;19.95;59.05;100176.75;7398802;19;1410;-74
2024/02/09 07:48:56;;;;;;;;;;;;;;;19.84;59.10;100188.59;7400463;19;1252;-74
2024/02/09 07:51:25;;;;;;;;;;;;;;;19.91;58.82;100183.44;7399517;19;1357;-74
2024/02/09 07:53:55;;;;;;;;;;;;;;;19.96;58.87;100180.31;7398608;19;1238;-74
2024/02/09 07:56:27;;;;;;;;;;;;;;;20.00;58.94;100187.88;7401280;19;1309;-75
2024/02/09 07:58:58;;;;;;;;;;;;;;;20.04;58.74;100175.84;7399763;19;2191;-74
2024/02/09 08:01:29;;;;;;;;;;;;;;;20.12;58.88;100167.00;7399446;19;1681;-73
2024/02/09 08:03:59;;;;;;;;;;;;;;;20.16;58.71;100170.22;7397856;19;1594;-74
2024/02/09 08:06:31;;;;;;;;;;;;;;;20.16;58.78;100168.38;7395863;19;1042;-73
2024/02/09 08:09:01;;;;;;;;;;;;;;;20.18;58.80;100171.75;7394620;19;1544;-82
2024/02/09 08:11:32;;;;;;;;;;;;;;;20.14;59.11;100165.00;7398142;19;1486;-82
2024/02/09 08:14:01;;;;;;;;;;;;;;;19.82;60.22;100162.94;7398322;19;1415;-82
2024/02/09 08:16:35;;;;;;;;;;;;;;;19.56;60.91;100162.84;7401567;19;1022;-82
2024/02/09 08:19:04;;;;;;;;;;;;;;;19.45;61.24;100158.53;7399604;19;1851;-82
2024/02/09 08:21:39;;;;;;;;;;;;;;;19.28;61.41;100150.34;7398413;19;1977;-82
2024/02/09 08:24:14;;;;;;;;;;;;;;;19.14;61.69;100175.00;7398490;19;1243;-82
2024/02/09 08:26:45;;;;;;;;;;;;;;;19.07;61.88;100150.63;7396342;19;1223;-73
2024/02/09 08:29:13;;;;;;;;;;;;;;;18.99;62.17;100155.06;7398747;19;1710;-82
2024/02/09 08:31:42;;;;;;;;;;;;;;;19.04;62.28;100142.06;7397889;19;1161;-73
2024/02/09 08:34:11;;;;;;;;;;;;;;;19.37;61.86;100143.22;7397072;19;1524;-73
2024/02/09 08:36:39;;;;;;;;;;;;;;;19.94;61.25;100139.38;7386411;19;1266;-73
2024/02/09 08:39:07;;;;;;;;;;;;;;;20.23;60.57;100144.41;7397048;19;1846;-73
2024/02/09 08:41:36;;;;;;;;;;;;;;;20.46;58.97;100156.28;7398240;19;1489;-73
2024/02/09 08:44:07;;;;;;;;;;;;;;;20.34;59.95;100136.09;7396621;19;1512;-73
2024/02/09 08:46:35;;;;;;;;;;;;;;;20.46;59.86;100150.09;7396274;19;1764;-73
2024/02/09 08:49:06;;;;;;;;;;;;;;;20.42;59.98;100138.00;7396937;19;1142;-73
2024/02/09 08:51:34;;;;;;;;;;;;;;;20.41;59.92;100147.03;7393967;19;1872;-73
2024/02/09 08:54:03;;;;;;;;;;;;;;;20.34;60.33;100140.63;7401048;19;1753;-73
2024/02/09 08:56:31;;;;;;;;;;;;;;;20.33;60.38;100149.69;7402307;19;1458;-73
2024/02/09 08:59:00;;;;;;;;;;;;;;;20.29;60.56;100149.16;7399936;19;1848;-73
2024/02/09 09:01:31;;;;;;;;;;;;;;;20.30;60.49;100145.47;7402932;19;1234;-73
2024/02/09 09:04:00;;;;;;;;;;;;;;;20.34;60.51;100146.00;7405006;19;944;-72
2024/02/09 09:06:28;;;;;;;;;;;;;;;20.37;60.38;100153.72;7401329;19;1852;-73
2024/02/09 09:08:57;;;;;;;;;;;;;;;20.31;60.34;100155.19;7403907;19;1930;-73
2024/02/09 09:11:25;;;;;;;;;;;;;;;20.30;60.29;100144.63;7405298;19;1829;-82
2024/02/09 09:13:54;;;;;;;;;;;;;;;20.27;60.44;100156.50;7406458;19;1635;-74
2024/02/09 09:16:22;;;;;;;;;;;;;;;20.24;60.51;100155.00;7403807;19;1910;-82
2024/02/09 09:18:53;;;;;;;;;;;;;;;20.17;60.64;100148.56;7401963;19;1850;-82
2024/02/09 09:21:22;;;;;;;;;;;;;;;20.24;60.59;100157.69;7405584;19;1229;-82
2024/02/09 09:23:51;;;;;;;;;;;;;;;20.27;60.43;100146.66;7405506;19;1506;-73
2024/02/09 09:26:20;;;;;;;;;;;;;;;20.29;60.43;100149.16;7407108;19;1555;-81
2024/02/09 09:28:53;;;;;;;;;;;;;;;20.36;60.18;100144.84;7402587;19;1152;-82
2024/02/09 09:31:22;;;;;;;;;;;;;;;20.44;59.99;100136.81;7404458;19;1820;-82
2024/02/09 09:33:53;;;;;;;;;;;;;;;20.48;59.84;100126.59;7403434;19;1454;-82
2024/02/09 09:36:21;;;;;;;;;;;;;;;20.47;59.78;100114.16;7403291;19;987;-82
2024/02/09 09:38:51;;;;;;;;;;;;;;;20.50;59.68;100119.22;7389351;19;2250;-83
2024/02/09 09:41:20;;;;;;;;;;;;;;;20.51;59.83;100114.69;7406360;19;1002;-82
2024/02/09 09:43:49;;;;;;;;;;;;;;;20.50;59.74;100113.84;7406915;19;1445;-82
2024/02/09 10:24:40;;;;;;;;;;;;;;;20.18;60.22;100079.63;6748325;19;10002245;-42
2024/02/09 10:27:10;;;;;;;;;;;;;;;19.83;61.07;100084.94;7418532;19;1451;-42
2024/02/09 10:29:39;;;;;;;;;;;;;;;19.55;61.61;100069.97;7419095;19;1574;-43
2024/02/09 10:32:10;;;;;;;;;;;;;;;19.77;61.34;100076.69;7419169;19;1837;-33
2024/02/09 10:34:38;;;;;;;;;;;;;;;20.29;59.95;100062.38;7417997;19;1634;-33
2024/02/09 10:37:06;;;;;;;;;;;;;;;20.55;59.25;100067.69;7419189;19;1546;-33
2024/02/09 10:39:35;;;;;;;;;;;;;;;20.81;58.53;100054.19;7417971;19;1610;-42
2024/02/09 10:42:07;;;;;;;;;;;;;;;20.96;58.18;100052.53;7421617;19;1798;-42
2024/02/09 10:44:39;;;;;;;;;;;;;;;20.99;58.09;100052.22;7419676;19;1915;-42
2024/02/09 10:47:09;;;;;;;;;;;;;;;21.08;57.99;100036.09;7418209;19;1793;-42
2024/02/09 10:49:40;;;;;;;;;;;;;;;21.02;57.97;100037.59;7415225;19;1781;-43
2024/02/09 10:52:11;;;;;;;;;;;;;;;21.05;57.93;100032.75;7418858;19;1837;-43
2024/02/09 10:54:40;;;;;;;;;;;;;;;21.04;57.77;100025.66;7418345;19;1666;-46
2024/02/09 10:57:12;;;;;;;;;;;;;;;21.10;57.75;100036.78;7418916;19;1606;-42
2024/02/09 10:59:42;;;;;;;;;;;;;;;21.18;57.82;100020.66;7417359;19;1414;-42
2024/02/09 11:02:11;;;;;;;;;;;;;;;21.21;57.57;100034.59;7417769;19;1586;-42
2024/02/09 11:04:39;;;;;;;;;;;;;;;21.24;57.45;100025.34;7418003;19;1494;-42
2024/02/09 11:07:08;;;;;;;;;;;;;;;21.24;57.40;100017.28;7417403;19;1559;-42
2024/02/09 11:09:36;;;;;;;;;;;;;;;21.23;57.64;100016.44;7418225;19;1552;-42
2024/02/09 11:12:06;;;;;;;;;;;;;;;21.24;57.59;100006.53;7419402;19;1870;-42
2024/02/09 11:14:37;;;;;;;;;;;;;;;21.34;57.33;99998.28;7415061;19;2255;-42
2024/02/09 11:17:06;;;;;;;;;;;;;;;21.31;57.33;100001.31;7417406;19;1499;-42
2024/02/09 11:19:38;;;;;;;;;;;;;;;21.35;57.41;100000.81;7416962;19;1741;-41
2024/02/09 11:22:06;;;;;;;;;;;;;;;21.35;57.28;99998.13;7416039;19;1648;-42
2024/02/09 11:24:35;;;;;;;;;;;;;;;21.35;57.19;99981.16;7400650;19;1357;-42
2024/02/09 11:27:04;;;;;;;;;;;;;;;21.35;57.44;100008.88;7386743;19;1546;-42
2024/02/09 11:29:33;;;;;;;;;;;;;;;21.37;57.14;99998.78;7388549;19;1610;-42
2024/02/09 11:32:05;;;;;;;;;;;;;;;21.42;57.07;99995.59;7388168;19;1559;-42
2024/02/09 11:34:34;;;;;;;;;;;;;;;21.45;57.23;100000.66;7385375;19;1861;-42
2024/02/09 11:37:03;;;;;;;;;;;;;;;21.42;57.00;99996.41;7388032;19;1397;-42
2024/02/09 11:39:33;;;;;;;;;;;;;;;21.44;56.96;99994.44;7387942;19;1515;-42
2024/02/09 11:42:02;;;;;;;;;;;;;;;21.42;57.41;100004.50;7389787;19;1100;-42
2024/02/09 11:44:31;;;;;;;;;;;;;;;21.44;57.17;100045.53;7387879;19;1610;-44
2024/02/09 11:46:59;;;;;;;;;;;;;;;21.50;56.98;99994.78;7387955;19;1776;-33
2024/02/09 11:49:30;;;;;;;;;;;;;;;21.48;57.06;99997.63;7387326;19;1828;-33
2024/02/09 11:52:06;;;;;;;;;;;;;;;21.55;56.69;99989.72;7386083;19;1653;-33
2024/02/09 11:54:34;;;;;;;;;;;;;;;21.49;57.03;99979.63;7385070;19;1865;-33
2024/02/09 11:57:03;;;;;;;;;;;;;;;21.50;57.10;99992.06;7387144;19;1650;-33
2024/02/09 11:59:32;;;;;;;;;;;;;;;21.51;57.05;99983.84;7386324;19;1353;-33
2024/02/09 12:02:00;;;;;;;;;;;;;;;21.45;57.09;99976.47;7383560;19;1802;-33
2024/02/09 12:04:31;;;;;;;;;;;;;;;21.49;57.26;99979.63;7386923;19;1395;-33
2024/02/09 12:07:00;;;;;;;;;;;;;;;21.49;57.04;99979.63;7387491;19;1551;-33
2024/02/09 12:09:29;;;;;;;;;;;;;;;21.51;56.77;99967.72;7387848;19;1495;-33
2024/02/09 12:11:58;;;;;;;;;;;;;;;21.44;57.01;99962.16;7388345;19;1105;-33
2024/02/09 12:14:26;;;;;;;;;;;;;;;21.45;57.04;99971.91;7383965;19;2241;-34
2024/02/09 12:16:55;;;;;;;;;;;;;;;21.42;57.02;99961.44;7386612;19;1633;-33
2024/02/09 12:19:23;;;;;;;;;;;;;;;21.43;57.01;99971.25;7387157;19;1511;-33
2024/02/09 12:21:54;;;;;;;;;;;;;;;21.52;57.04;99973.91;7383002;19;2682;-33
2024/02/09 12:24:23;;;;;;;;;;;;;;;21.54;56.73;99958.44;7385869;19;1368;-33
2024/02/09 12:26:51;;;;;;;;;;;;;;;21.58;56.84;99954.41;7386753;19;1527;-33
2024/02/09 12:29:19;;;;;;;;;;;;;;;21.59;56.81;99958.78;7387832;19;1239;-33
2024/02/09 12:31:49;;;;;;;;;;;;;;;21.60;56.67;99952.38;7387643;19;1037;-33
2024/02/09 12:34:17;;;;;;;;;;;;;;;21.61;56.78;99962.97;7384908;19;1876;-33
2024/02/09 12:36:59;;;;;;;;;;;;;;;21.60;56.67;99957.75;7384172;19;1852;-33
2024/02/09 12:39:28;;;;;;;;;;;;;;;21.57;56.73;99956.25;7385588;19;1939;-33
2024/02/09 12:42:01;;;;;;;;;;;;;;;21.60;56.63;99944.31;7385399;19;1532;-33
2024/02/09 12:44:30;;;;;;;;;;;;;;;21.62;56.67;99953.03;7385681;19;1416;-33
2024/02/09 12:46:59;;;;;;;;;;;;;;;21.62;56.74;99947.66;7386280;19;1412;-40
2024/02/09 12:49:28;;;;;;;;;;;;;;;21.57;56.86;99961.63;7385664;19;1327;-33
2024/02/09 12:52:01;;;;;;;;;;;;;;;21.58;56.86;99957.09;7383897;19;1768;-33
2024/02/09 12:54:29;;;;;;;;;;;;;;;21.57;56.66;99947.34;7382768;19;1864;-33
2024/02/09 12:56:59;;;;;;;;;;;;;;;21.59;56.78;99953.41;7384708;19;1495;-33
2024/02/09 12:59:28;;;;;;;;;;;;;;;21.55;56.80;99944.00;7386528;19;1539;-33
2024/02/09 13:01:56;;;;;;;;;;;;;;;21.57;56.63;99950.03;7384267;19;1345;-33
2024/02/09 13:04:25;;;;;;;;;;;;;;;21.58;56.86;99959.78;7385656;19;1531;-33
2024/02/09 13:06:53;;;;;;;;;;;;;;;21.60;56.62;99955.06;7385412;19;1433;-33
2024/02/09 13:09:24;;;;;;;;;;;;;;;21.57;56.85;99940.09;7385662;19;1297;-33
2024/02/09 13:11:53;;;;;;;;;;;;;;;21.60;56.60;99949.69;7386096;19;1129;-33
2024/02/09 13:14:21;;;;;;;;;;;;;;;21.62;56.44;99942.28;7381772;19;2213;-33
2024/02/09 13:16:50;;;;;;;;;;;;;;;21.58;56.70;99951.72;7386127;19;1093;-33
2024/02/09 13:19:18;;;;;;;;;;;;;;;21.59;56.76;99942.63;7384256;19;1493;-33
2024/02/09 13:21:54;;;;;;;;;;;;;;;21.58;56.61;99949.84;7383810;19;1401;-33
2024/02/09 13:24:25;;;;;;;;;;;;;;;21.59;56.71;99943.47;7384320;19;1455;-33
2024/02/09 13:26:54;;;;;;;;;;;;;;;21.62;56.65;99953.88;7383222;19;1401;-33
2024/02/09 13:29:24;;;;;;;;;;;;;;;21.66;56.70;99949.00;7384038;19;1357;-33
2024/02/09 13:31:52;;;;;;;;;;;;;;;21.64;56.57;99957.22;7383025;19;1716;-33
2024/02/09 13:34:21;;;;;;;;;;;;;;;21.62;56.55;99937.72;7382441;19;1865;-33
2024/02/09 13:36:49;;;;;;;;;;;;;;;21.63;56.47;99942.09;7384816;19;1515;-33
2024/02/09 13:39:18;;;;;;;;;;;;;;;21.60;56.74;99931.69;7383847;19;1483;-36
2024/02/09 13:41:49;;;;;;;;;;;;;;;21.61;56.54;99943.31;7384923;19;1303;-34
2024/02/09 13:44:17;;;;;;;;;;;;;;;21.59;56.68;99916.56;7384238;19;1768;-41
2024/02/09 13:46:45;;;;;;;;;;;;;;;21.64;56.52;99938.38;7383886;19;1698;-33
2024/02/09 13:49:14;;;;;;;;;;;;;;;21.65;56.71;99928.50;7384359;19;1463;-34
2024/02/09 13:51:42;;;;;;;;;;;;;;;21.62;56.69;99920.75;7383768;19;1630;-33
2024/02/09 13:54:10;;;;;;;;;;;;;;;21.62;56.58;99926.13;7383409;19;1879;-33
2024/02/09 13:56:39;;;;;;;;;;;;;;;21.61;56.61;99933.38;7383760;19;1571;-34
2024/02/09 13:59:10;;;;;;;;;;;;;;;21.60;56.67;99938.91;7383168;19;1594;-34
2024/02/09 14:01:39;;;;;;;;;;;;;;;21.63;56.60;99927.81;7384484;19;1471;-33
2024/02/09 14:04:09;;;;;;;;;;;;;;;21.58;56.75;99922.94;7383657;19;1369;-33
2024/02/09 14:06:37;;;;;;;;;;;;;;;21.55;56.87;99935.94;7383506;19;1388;-33
2024/02/09 14:09:06;;;;;;;;;;;;;;;21.53;56.75;99932.56;7383983;19;1638;-33
2024/02/09 14:11:34;;;;;;;;;;;;;;;21.52;56.80;99931.69;7384537;19;1097;-33
2024/02/09 14:14:03;;;;;;;;;;;;;;;21.54;56.95;99928.84;7381577;19;1847;-33
2024/02/09 14:16:35;;;;;;;;;;;;;;;21.53;56.75;99922.63;7389308;19;1890;-33
2024/02/09 14:19:04;;;;;;;;;;;;;;;21.50;56.89;99935.59;7388396;19;1293;-33
2024/02/09 14:21:34;;;;;;;;;;;;;;;21.47;56.89;99926.03;7390138;19;1238;-33
2024/02/09 14:24:02;;;;;;;;;;;;;;;21.44;57.01;99921.81;7388481;19;1594;-33
2024/02/09 14:26:30;;;;;;;;;;;;;;;21.45;56.80;99923.50;7390200;19;1002;-33
2024/02/09 14:29:00;;;;;;;;;;;;;;;21.44;57.09;99919.13;7389359;19;1928;-33
2024/02/09 14:31:28;;;;;;;;;;;;;;;21.43;57.22;99922.84;7389058;19;1504;-33
2024/02/09 14:33:59;;;;;;;;;;;;;;;21.47;57.12;99922.47;7387163;19;1868;-33
2024/02/09 14:36:28;;;;;;;;;;;;;;;21.43;57.22;99919.31;7390067;19;1709;-33
2024/02/09 14:38:56;;;;;;;;;;;;;;;21.45;56.99;99918.13;7388696;19;1701;-33
2024/02/09 14:41:25;;;;;;;;;;;;;;;21.43;56.96;99930.91;7388944;19;1758;-33
2024/02/09 14:43:53;;;;;;;;;;;;;;;21.37;57.11;99922.66;7387314;19;1744;-33
2024/02/09 14:46:24;;;;;;;;;;;;;;;21.45;56.93;99926.19;7387879;19;1771;-33
2024/02/09 14:48:53;;;;;;;;;;;;;;;21.58;56.71;99924.81;7387083;19;1839;-34
2024/02/09 14:51:25;;;;;;;;;;;;;;;21.64;56.74;99924.09;7389389;19;1567;-33
2024/02/09 14:53:53;;;;;;;;;;;;;;;21.29;57.26;99938.78;7387150;19;1845;-33
2024/02/09 14:56:22;;;;;;;;;;;;;;;21.03;58.32;99931.78;7388065;19;1569;-33
2024/02/09 14:58:53;;;;;;;;;;;;;;;20.94;58.55;99943.53;7388918;19;1670;-33
2024/02/09 15:01:23;;;;;;;;;;;;;;;20.95;58.45;99958.63;7396135;19;1210;-33
2024/02/09 15:03:52;;;;;;;;;;;;;;;20.99;58.24;99942.03;7396854;19;996;-33
2024/02/09 15:06:21;;;;;;;;;;;;;;;21.03;58.07;99929.94;7396497;19;1816;-33
2024/02/09 15:08:53;;;;;;;;;;;;;;;21.05;57.98;99946.72;7395604;19;1475;-33
2024/02/09 15:11:22;;;;;;;;;;;;;;;21.14;57.93;99941.34;7392519;19;2076;-33
2024/02/09 15:13:51;;;;;;;;;;;;;;;21.24;57.49;99933.94;7394632;19;2125;-33
2024/02/09 15:16:19;;;;;;;;;;;;;;;21.24;57.41;99937.44;7394738;19;1408;-33
2024/02/09 15:18:47;;;;;;;;;;;;;;;21.27;57.30;99928.22;7395158;19;1196;-33
2024/02/09 15:21:17;;;;;;;;;;;;;;;21.23;57.57;99934.94;7397031;19;938;-33
2024/02/09 15:23:45;;;;;;;;;;;;;;;21.25;57.52;99914.09;7395719;19;1842;-33
2024/02/09 15:26:16;;;;;;;;;;;;;;;21.24;57.45;99910.56;7395449;19;1409;-33
2024/02/09 15:28:45;;;;;;;;;;;;;;;21.22;57.54;99909.06;7394136;19;1568;-33
2024/02/09 15:31:14;;;;;;;;;;;;;;;21.25;57.42;99922.19;7393741;19;1448;-33